createdAt,value
2022-10-31T00:03:16.677Z,12.80
2022-10-31T00:05:47.387Z,12.70
2022-10-31T00:10:44.284Z,12.70
2022-10-31T00:13:13.385Z,12.70
2022-10-31T00:15:41.987Z,12.60
2022-10-31T00:18:11.104Z,12.60
2022-10-31T00:20:39.574Z,12.50
2022-10-31T00:23:10.859Z,12.50
2022-10-31T00:25:40.046Z,12.50
2022-10-31T00:28:09.307Z,12.50
2022-10-31T00:33:06.146Z,12.40
2022-10-31T00:35:34.300Z,12.50
2022-10-31T00:38:02.154Z,12.50
2022-10-31T00:40:31.339Z,12.40
2022-10-31T00:57:50.279Z,12.10
2022-10-31T01:00:18.674Z,12.10
2022-10-31T01:05:15.554Z,12.00
2022-10-31T01:07:44.074Z,12.00
2022-10-31T01:10:13.092Z,12.00
2022-10-31T01:12:42.446Z,12.00
2022-10-31T01:15:13.389Z,12.00
2022-10-31T01:17:41.623Z,12.00
2022-10-31T01:20:12.253Z,11.90
2022-10-31T01:25:10.184Z,11.90
2022-10-31T01:27:38.306Z,11.90
2022-10-31T01:30:07.336Z,11.90
2022-10-31T01:32:36.690Z,12.00
2022-10-31T01:35:04.787Z,12.00
2022-10-31T01:37:33.382Z,12.00
2022-10-31T01:45:02.302Z,11.90
2022-10-31T01:47:45.183Z,11.90
2022-10-31T01:50:19.666Z,11.90
2022-10-31T01:52:51.257Z,11.90
2022-10-31T01:55:25.205Z,11.90
2022-10-31T01:58:00.462Z,11.90
2022-10-31T02:02:58.426Z,11.90
2022-10-31T02:05:30.437Z,11.80
2022-10-31T02:08:01.791Z,11.60
2022-10-31T02:10:31.159Z,11.50
2022-10-31T02:13:00.822Z,11.40
2022-10-31T02:15:30.362Z,11.40
2022-10-31T02:18:00.199Z,11.30
2022-10-31T02:20:34.728Z,11.30
2022-10-31T02:23:28.744Z,11.30
2022-10-31T02:26:15.947Z,11.30
2022-10-31T02:29:01.922Z,11.20
2022-10-31T02:31:37.980Z,11.10
2022-10-31T02:34:15.899Z,11.10
2022-10-31T02:36:49.077Z,11.00
2022-10-31T02:39:24.377Z,11.00
2022-10-31T02:42:00.544Z,11.00
2022-10-31T02:44:37.488Z,11.00
2022-10-31T02:47:10.589Z,11.10
2022-10-31T02:49:45.750Z,11.10
2022-10-31T02:52:20.530Z,11.10
2022-10-31T02:54:49.547Z,11.10
2022-10-31T02:57:20.371Z,11.10
2022-10-31T02:59:55.136Z,11.10
2022-10-31T03:02:41.803Z,11.10
2022-10-31T03:05:33.551Z,11.10
2022-10-31T03:08:10.094Z,11.10
2022-10-31T03:10:45.119Z,11.10
2022-10-31T03:13:20.005Z,11.10
2022-10-31T03:15:52.104Z,11.20
2022-10-31T03:18:27.989Z,11.20
2022-10-31T03:21:00.393Z,11.20
2022-10-31T03:23:30.401Z,11.20
2022-10-31T03:26:00.272Z,11.20
2022-10-31T03:28:35.877Z,11.10
2022-10-31T03:31:07.492Z,11.10
2022-10-31T03:33:38.927Z,11.20
2022-10-31T03:36:10.481Z,11.20
2022-10-31T03:38:39.213Z,11.20
2022-10-31T03:41:11.954Z,11.20
2022-10-31T03:43:44.519Z,11.30
2022-10-31T03:46:12.743Z,11.30
2022-10-31T03:48:41.970Z,11.30
2022-10-31T03:51:17.222Z,11.30
2022-10-31T03:53:49.344Z,11.30
2022-10-31T03:56:24.553Z,11.40
2022-10-31T03:59:00.394Z,11.30
2022-10-31T04:01:31.437Z,11.30
2022-10-31T04:04:02.077Z,11.30
2022-10-31T04:06:30.800Z,11.30
2022-10-31T04:09:03.045Z,11.20
2022-10-31T04:11:33.412Z,11.20
2022-10-31T04:14:03.639Z,11.20
2022-10-31T04:19:00.936Z,11.10
2022-10-31T04:21:30.229Z,11.10
2022-10-31T04:23:58.669Z,11.00
2022-10-31T04:36:20.810Z,10.80
2022-10-31T04:53:39.943Z,10.50
2022-10-31T04:56:08.377Z,10.40
2022-10-31T05:11:04.327Z,10.20
2022-10-31T05:13:33.369Z,10.30
2022-10-31T05:28:23.168Z,10.70
2022-10-31T05:30:51.647Z,10.80
2022-10-31T05:45:41.526Z,11.10
2022-10-31T05:48:10.779Z,11.10
2022-10-31T05:53:07.558Z,11.10
2022-10-31T06:03:02.353Z,11.10
2022-10-31T06:07:59.085Z,11.10
2022-10-31T06:18:05.300Z,11.20
2022-10-31T06:20:34.109Z,11.10
2022-10-31T06:23:03.021Z,11.00
2022-10-31T06:27:59.658Z,11.00
2022-10-31T06:30:27.710Z,11.00
2022-10-31T06:35:25.060Z,11.00
2022-10-31T06:37:53.814Z,10.90
2022-10-31T06:40:22.251Z,10.90
2022-10-31T06:48:15.376Z,10.90
2022-10-31T06:50:42.257Z,10.90
2022-10-31T07:03:06.575Z,11.00
2022-10-31T07:08:06.543Z,11.00
2022-10-31T07:10:40.101Z,11.10
2022-10-31T07:13:14.085Z,11.20
2022-10-31T07:15:43.691Z,11.20
2022-10-31T07:18:13.705Z,11.30
2022-10-31T07:23:12.088Z,11.40
2022-10-31T07:28:08.813Z,11.60
2022-10-31T07:30:36.826Z,11.50
2022-10-31T07:33:06.835Z,11.50
2022-10-31T07:35:35.724Z,11.50
2022-10-31T07:38:12.581Z,11.50
2022-10-31T07:40:40.742Z,11.60
2022-10-31T07:45:42.760Z,11.70
2022-10-31T07:50:38.861Z,11.60
2022-10-31T07:53:08.006Z,11.70
2022-10-31T07:55:37.590Z,11.70
2022-10-31T07:58:06.561Z,11.90
2022-10-31T08:00:37.170Z,12.00
2022-10-31T08:03:07.323Z,12.10
2022-10-31T08:05:36.297Z,12.20
2022-10-31T08:08:04.712Z,12.30
2022-10-31T08:10:33.569Z,12.30
2022-10-31T08:13:04.076Z,12.40
2022-10-31T08:15:32.337Z,12.50
2022-10-31T08:22:58.441Z,12.90
2022-10-31T08:25:28.289Z,13.00
2022-10-31T08:27:58.484Z,13.00
2022-10-31T08:30:29.902Z,13.10
2022-10-31T08:33:05.857Z,13.00
2022-10-31T08:35:34.542Z,12.90
2022-10-31T08:38:03.454Z,12.90
2022-10-31T08:40:33.191Z,12.90
2022-10-31T08:43:03.329Z,12.80
2022-10-31T08:45:34.479Z,12.80
2022-10-31T08:48:04.398Z,12.80
2022-10-31T08:50:34.288Z,12.80
2022-10-31T08:53:05.562Z,12.80
2022-10-31T08:55:35.282Z,12.80
2022-10-31T08:58:04.152Z,12.80
2022-10-31T09:00:33.846Z,12.70
2022-10-31T09:03:03.361Z,12.70
2022-10-31T09:05:32.415Z,12.70
2022-10-31T09:08:01.800Z,12.60
2022-10-31T09:10:30.732Z,12.60
2022-10-31T09:12:59.279Z,12.70
2022-10-31T09:15:27.715Z,12.90
2022-10-31T09:17:57.728Z,13.00
2022-10-31T09:20:25.812Z,13.10
2022-10-31T09:22:58.395Z,13.30
2022-10-31T09:27:59.500Z,13.50
2022-10-31T09:30:29.413Z,13.60
2022-10-31T09:32:59.999Z,13.80
2022-10-31T09:35:28.598Z,13.90
2022-10-31T09:37:57.185Z,13.90
2022-10-31T09:40:32.111Z,13.80
2022-10-31T09:43:07.300Z,13.90
2022-10-31T09:45:50.126Z,14.00
2022-10-31T09:48:33.975Z,14.20
2022-10-31T09:51:06.978Z,14.40
2022-10-31T09:53:40.726Z,14.60
2022-10-31T09:56:11.767Z,14.70
2022-10-31T09:58:45.117Z,14.80
2022-10-31T10:01:27.137Z,15.00
2022-10-31T10:04:01.385Z,15.10
2022-10-31T10:06:31.601Z,15.20
2022-10-31T10:11:42.890Z,15.30
2022-10-31T10:14:29.901Z,15.40
2022-10-31T10:17:16.773Z,15.50
2022-10-31T10:20:06.986Z,15.70
2022-10-31T10:22:44.609Z,15.80
2022-10-31T10:25:19.751Z,16.00
2022-10-31T10:28:04.763Z,16.20
2022-10-31T10:30:38.673Z,16.30
2022-10-31T10:33:12.472Z,16.40
2022-10-31T10:35:45.934Z,16.50
2022-10-31T10:38:19.208Z,16.70
2022-10-31T10:40:48.379Z,16.80
2022-10-31T10:43:26.631Z,16.90
2022-10-31T10:46:36.117Z,17.10
2022-10-31T10:49:13.786Z,17.40
2022-10-31T10:52:07.315Z,17.80
2022-10-31T10:54:48.649Z,18.90
2022-10-31T10:57:29.201Z,20.30
2022-10-31T10:59:57.400Z,21.10
2022-10-31T11:02:27.251Z,21.70
2022-10-31T11:04:57.671Z,21.90
2022-10-31T11:07:26.920Z,21.80
2022-10-31T11:10:05.977Z,21.90
2022-10-31T11:12:35.424Z,22.20
2022-10-31T11:15:09.693Z,22.40
2022-10-31T11:17:40.435Z,22.30
2022-10-31T11:20:31.104Z,22.00
2022-10-31T11:23:07.638Z,22.70
2022-10-31T11:28:05.478Z,23.60
2022-10-31T11:30:44.054Z,23.80
2022-10-31T11:33:22.024Z,23.70
2022-10-31T11:35:55.169Z,23.90
2022-10-31T11:38:33.138Z,24.10
2022-10-31T11:41:16.840Z,24.10
2022-10-31T11:43:51.231Z,24.10
2022-10-31T11:46:23.578Z,24.10
2022-10-31T11:48:53.698Z,24.30
2022-10-31T11:51:27.292Z,24.50
2022-10-31T11:54:02.671Z,25.00
2022-10-31T11:59:20.468Z,25.60
2022-10-31T12:01:53.605Z,25.40
2022-10-31T12:04:31.052Z,25.80
2022-10-31T12:07:00.136Z,25.60
2022-10-31T12:09:31.291Z,25.20
2022-10-31T12:12:28.833Z,24.90
2022-10-31T12:15:11.862Z,24.70
2022-10-31T12:17:45.571Z,24.90
2022-10-31T12:20:23.603Z,24.70
2022-10-31T12:23:00.817Z,24.30
2022-10-31T12:25:40.083Z,24.10
2022-10-31T12:28:44.939Z,24.10
2022-10-31T12:31:29.643Z,23.80
2022-10-31T12:34:12.129Z,23.40
2022-10-31T12:36:52.793Z,22.80
2022-10-31T12:39:27.192Z,22.00
2022-10-31T12:42:05.408Z,21.40
2022-10-31T12:44:49.779Z,21.00
2022-10-31T12:47:42.269Z,20.70
2022-10-31T12:50:24.601Z,20.60
2022-10-31T12:53:02.641Z,20.60
2022-10-31T12:55:43.580Z,20.50
2022-10-31T12:58:19.490Z,20.50
2022-10-31T13:00:50.829Z,20.50
2022-10-31T13:03:28.485Z,20.40
2022-10-31T13:06:00.929Z,20.40
2022-10-31T13:08:32.957Z,20.50
2022-10-31T13:11:14.354Z,20.40
2022-10-31T13:13:52.671Z,20.30
2022-10-31T13:16:23.314Z,20.10
2022-10-31T13:18:55.361Z,20.00
2022-10-31T13:21:28.272Z,19.90
2022-10-31T13:23:59.855Z,19.80
2022-10-31T13:26:38.253Z,19.80
2022-10-31T13:29:16.509Z,19.70
2022-10-31T13:31:44.688Z,19.70
2022-10-31T13:34:25.817Z,19.60
2022-10-31T13:37:02.160Z,19.60
2022-10-31T13:39:42.796Z,19.60
2022-10-31T13:42:20.367Z,19.50
2022-10-31T13:44:49.629Z,19.40
2022-10-31T13:47:25.348Z,19.30
2022-10-31T13:52:26.859Z,19.30
2022-10-31T13:54:57.748Z,19.20
2022-10-31T13:57:35.025Z,19.20
2022-10-31T14:00:08.145Z,19.20
2022-10-31T14:02:38.076Z,19.20
2022-10-31T14:05:24.271Z,19.20
2022-10-31T14:07:53.532Z,19.10
2022-10-31T14:10:28.781Z,19.10
2022-10-31T14:13:05.663Z,19.00
2022-10-31T14:15:35.388Z,18.90
2022-10-31T14:18:06.414Z,18.80
2022-10-31T14:20:39.107Z,18.70
2022-10-31T14:23:28.809Z,18.60
2022-10-31T14:26:07.605Z,18.40
2022-10-31T14:28:37.836Z,18.30
2022-10-31T14:31:32.905Z,18.20
2022-10-31T14:34:01.229Z,18.10
2022-10-31T14:36:39.594Z,18.00
2022-10-31T14:39:14.749Z,17.90
2022-10-31T14:42:04.660Z,17.90
2022-10-31T14:44:59.431Z,17.80
2022-10-31T14:47:41.025Z,17.70
2022-10-31T14:50:31.818Z,17.70
2022-10-31T14:53:05.213Z,17.70
2022-10-31T14:55:33.870Z,17.80
2022-10-31T14:58:06.213Z,17.90
2022-10-31T15:00:35.920Z,17.90
2022-10-31T15:03:13.327Z,18.00
2022-10-31T15:05:47.213Z,18.20
2022-10-31T15:08:28.678Z,18.30
2022-10-31T15:15:56.485Z,18.40
2022-10-31T15:18:27.317Z,18.30
2022-10-31T15:20:57.014Z,18.20
2022-10-31T15:23:27.604Z,18.20
2022-10-31T15:26:01.623Z,18.00
2022-10-31T15:28:29.798Z,17.90
2022-10-31T15:30:59.220Z,17.70
2022-10-31T15:33:37.844Z,17.50
2022-10-31T15:36:07.215Z,17.30
2022-10-31T15:38:35.175Z,17.20
2022-10-31T15:41:06.764Z,17.00
2022-10-31T15:43:37.767Z,16.90
2022-10-31T15:46:08.431Z,16.80
2022-10-31T15:48:39.274Z,16.70
2022-10-31T15:51:07.360Z,16.60
2022-10-31T15:53:39.731Z,16.50
2022-10-31T15:56:10.289Z,16.40
2022-10-31T15:58:45.628Z,16.40
2022-10-31T16:01:24.321Z,16.40
2022-10-31T16:04:06.354Z,16.30
2022-10-31T16:06:35.799Z,16.30
2022-10-31T16:11:36.802Z,16.20
2022-10-31T16:14:09.134Z,16.10
2022-10-31T16:16:44.622Z,16.10
2022-10-31T16:19:19.617Z,16.10
2022-10-31T16:21:49.713Z,16.10
2022-10-31T16:24:22.872Z,16.10
2022-10-31T16:26:52.273Z,16.10
2022-10-31T16:29:34.476Z,16.10
2022-10-31T16:34:32.084Z,16.10
2022-10-31T16:41:58.118Z,16.10
2022-10-31T16:44:27.855Z,16.10
2022-10-31T16:47:11.266Z,16.00
2022-10-31T16:49:40.475Z,16.00
2022-10-31T16:52:08.457Z,16.00
2022-10-31T16:54:36.492Z,16.00
2022-10-31T16:57:06.668Z,16.00
2022-10-31T16:59:35.738Z,16.00
2022-10-31T17:02:05.865Z,16.00
2022-10-31T17:07:03.304Z,15.90
2022-10-31T17:11:59.713Z,15.80
2022-10-31T17:14:30.624Z,15.80
2022-10-31T17:24:24.220Z,15.70
2022-10-31T17:36:51.823Z,15.50
2022-10-31T17:39:20.316Z,15.50
2022-10-31T17:41:52.246Z,15.40
2022-10-31T17:44:20.534Z,15.40
2022-10-31T17:49:16.638Z,15.30
2022-10-31T17:59:10.213Z,15.20
2022-10-31T18:04:06.682Z,15.10
2022-10-31T18:09:04.514Z,15.00
2022-10-31T18:11:32.783Z,14.90
2022-10-31T18:14:01.089Z,14.90
2022-10-31T18:16:30.376Z,14.80
2022-10-31T18:19:01.700Z,14.70
2022-10-31T18:21:30.133Z,14.70
2022-10-31T18:23:58.844Z,14.70
2022-10-31T18:26:28.183Z,14.70
2022-10-31T18:28:56.223Z,14.60
2022-10-31T18:31:24.187Z,14.50
2022-10-31T18:33:55.303Z,14.40
2022-10-31T18:36:23.762Z,14.40
2022-10-31T18:38:51.674Z,14.40
2022-10-31T18:43:47.730Z,14.40
2022-10-31T18:46:17.689Z,14.40
2022-10-31T18:48:46.389Z,14.40
2022-10-31T18:51:18.252Z,14.40
2022-10-31T18:53:51.421Z,14.40
2022-10-31T19:01:16.931Z,14.30
2022-10-31T19:06:14.695Z,14.30
2022-10-31T19:11:13.189Z,14.20
2022-10-31T19:13:41.793Z,14.20
2022-10-31T19:16:10.815Z,14.10
2022-10-31T19:18:39.532Z,14.20
2022-10-31T19:21:08.592Z,14.20
2022-10-31T19:23:38.211Z,14.10
2022-10-31T19:26:08.309Z,14.00
2022-10-31T19:28:37.847Z,13.90
2022-10-31T19:31:06.392Z,13.90
2022-10-31T19:33:36.239Z,13.80
2022-10-31T19:36:08.167Z,13.80
2022-10-31T19:38:44.880Z,13.70
2022-10-31T19:41:14.664Z,13.70
2022-10-31T19:43:42.784Z,13.70
2022-10-31T19:46:22.394Z,13.70
2022-10-31T19:48:55.997Z,13.70
2022-10-31T19:53:54.522Z,13.70
2022-10-31T19:56:26.024Z,13.70
2022-10-31T20:01:24.063Z,13.60
2022-10-31T20:03:52.573Z,13.60
2022-10-31T20:06:24.228Z,13.50
2022-10-31T20:08:54.307Z,13.60
2022-10-31T20:21:20.588Z,13.70
2022-10-31T20:23:48.745Z,13.70
2022-10-31T20:26:20.172Z,13.60
2022-10-31T20:31:19.441Z,13.60
2022-10-31T20:33:47.987Z,13.60
2022-10-31T20:36:19.355Z,13.60
2022-10-31T20:41:17.262Z,13.60
2022-10-31T20:43:45.818Z,13.60
2022-10-31T20:46:15.324Z,13.60
2022-10-31T20:48:43.617Z,13.70
2022-10-31T20:51:13.668Z,13.70
2022-10-31T20:53:42.154Z,13.70
